createdAt,value
2018-08-17T00:00:52.993Z,6.33
2018-08-17T00:03:21.574Z,6.60
2018-08-17T00:05:50.226Z,7.57
2018-08-17T00:08:18.923Z,6.80
2018-08-17T00:10:47.889Z,6.93
2018-08-17T00:13:16.806Z,8.43
2018-08-17T00:15:45.390Z,7.70
2018-08-17T00:18:14.136Z,7.60
2018-08-17T00:20:42.456Z,7.50
2018-08-17T00:23:10.915Z,6.90
2018-08-17T00:25:39.490Z,7.13
2018-08-17T00:28:08.506Z,7.47
2018-08-17T00:30:37.119Z,8.60
2018-08-17T00:33:05.732Z,7.10
2018-08-17T00:35:33.885Z,7.20
2018-08-17T00:38:02.492Z,8.17
2018-08-17T00:40:31.042Z,7.03
2018-08-17T00:42:59.321Z,6.70
2018-08-17T00:45:27.605Z,8.30
2018-08-17T00:47:56.248Z,8.10
2018-08-17T00:50:25.309Z,7.27
2018-08-17T00:52:54.063Z,7.50
2018-08-17T00:55:22.719Z,8.00
2018-08-17T00:57:51.271Z,9.10
2018-08-17T01:00:19.949Z,8.50
2018-08-17T01:02:55.176Z,8.50
2018-08-17T01:05:23.629Z,7.73
2018-08-17T01:07:52.283Z,7.97
2018-08-17T01:10:20.922Z,9.50
2018-08-17T01:12:49.564Z,8.57
2018-08-17T01:15:18.159Z,8.67
2018-08-17T01:17:46.743Z,7.77
2018-08-17T01:20:15.436Z,8.43
2018-08-17T01:22:44.097Z,7.97
2018-08-17T01:25:12.682Z,8.53
2018-08-17T01:27:41.431Z,8.50
2018-08-17T01:30:10.386Z,8.70
2018-08-17T01:32:39.055Z,9.03
2018-08-17T01:35:07.878Z,7.67
2018-08-17T01:37:36.908Z,9.10
2018-08-17T01:40:05.646Z,7.70
2018-08-17T01:42:34.242Z,7.90
2018-08-17T01:45:02.608Z,7.90
2018-08-17T01:47:31.274Z,7.93
2018-08-17T01:49:59.890Z,8.27
2018-08-17T01:52:28.044Z,8.20
2018-08-17T01:54:56.641Z,8.47
2018-08-17T01:57:25.345Z,9.00
2018-08-17T01:59:54.012Z,9.00
2018-08-17T02:02:22.542Z,8.73
2018-08-17T02:04:51.267Z,7.73
2018-08-17T02:07:19.621Z,9.43
2018-08-17T02:09:48.097Z,9.50
2018-08-17T02:12:16.586Z,9.33
2018-08-17T02:14:45.352Z,9.27
2018-08-17T02:17:13.797Z,8.13
2018-08-17T02:19:42.435Z,9.43
2018-08-17T02:22:11.199Z,9.10
2018-08-17T02:24:39.537Z,9.07
2018-08-17T02:27:08.527Z,8.70
2018-08-17T02:29:37.126Z,9.47
2018-08-17T02:32:05.879Z,10.10
2018-08-17T02:34:34.493Z,8.90
2018-08-17T02:37:03.332Z,8.60
2018-08-17T02:39:31.717Z,8.47
2018-08-17T02:42:00.443Z,8.43
2018-08-17T02:44:29.041Z,9.27
2018-08-17T02:46:57.595Z,8.40
2018-08-17T02:49:26.000Z,9.20
2018-08-17T02:51:54.275Z,8.40
2018-08-17T02:54:22.930Z,9.30
2018-08-17T02:56:51.557Z,9.07
2018-08-17T02:59:20.244Z,9.53
2018-08-17T03:01:48.880Z,9.60
2018-08-17T03:04:17.223Z,9.30
2018-08-17T03:06:45.695Z,11.43
2018-08-17T03:09:14.365Z,11.53
2018-08-17T03:11:43.163Z,9.10
2018-08-17T03:14:11.677Z,10.23
2018-08-17T03:16:40.342Z,9.90
2018-08-17T03:19:09.114Z,9.47
2018-08-17T03:21:37.802Z,10.10
2018-08-17T03:24:06.305Z,9.37
2018-08-17T03:26:34.646Z,9.73
2018-08-17T03:29:03.561Z,9.60
2018-08-17T03:31:32.162Z,9.90
2018-08-17T03:34:00.606Z,10.03
2018-08-17T03:36:30.497Z,10.07
2018-08-17T03:38:59.742Z,10.17
2018-08-17T03:41:28.565Z,9.40
2018-08-17T03:43:57.434Z,10.23
2018-08-17T03:46:26.542Z,11.80
2018-08-17T03:48:55.098Z,10.60
2018-08-17T03:51:23.567Z,10.37
2018-08-17T03:53:53.106Z,10.93
2018-08-17T03:56:23.394Z,10.53
2018-08-17T03:58:52.184Z,12.00
2018-08-17T04:01:21.398Z,12.17
2018-08-17T04:03:54.325Z,11.87
2018-08-17T04:06:25.133Z,11.33
2018-08-17T04:08:56.612Z,14.20
2018-08-17T04:11:26.483Z,11.90
2018-08-17T04:13:58.586Z,12.53
2018-08-17T04:16:31.311Z,11.27
2018-08-17T04:19:02.415Z,12.47
2018-08-17T04:21:34.294Z,12.13
2018-08-17T04:24:07.721Z,11.90
2018-08-17T04:26:40.546Z,11.23
2018-08-17T04:29:13.511Z,11.40
2018-08-17T04:31:44.022Z,13.70
2018-08-17T04:34:12.759Z,14.13
2018-08-17T04:36:44.751Z,14.23
2018-08-17T04:39:14.308Z,14.10
2018-08-17T04:41:46.271Z,12.33
2018-08-17T04:44:16.794Z,13.90
2018-08-17T04:46:47.028Z,13.80
2018-08-17T04:49:19.655Z,14.27
2018-08-17T04:51:50.551Z,13.87
2018-08-17T04:54:19.905Z,13.47
2018-08-17T04:56:51.526Z,13.70
2018-08-17T04:59:24.857Z,14.60
2018-08-17T05:01:57.296Z,13.50
2018-08-17T05:04:28.137Z,12.77
2018-08-17T05:06:59.205Z,14.93
2018-08-17T05:09:32.324Z,13.73
2018-08-17T05:12:02.885Z,15.43
2018-08-17T05:14:33.686Z,14.00
2018-08-17T05:17:11.163Z,13.83
2018-08-17T05:19:45.369Z,14.20
2018-08-17T05:22:14.483Z,16.33
2018-08-17T05:24:48.859Z,15.13
2018-08-17T05:27:18.200Z,15.90
2018-08-17T05:29:48.451Z,15.70
2018-08-17T05:32:18.056Z,15.80
2018-08-17T05:34:46.677Z,15.17
2018-08-17T05:37:17.645Z,15.30
2018-08-17T05:39:48.887Z,14.47
2018-08-17T05:42:19.046Z,16.37
2018-08-17T05:44:47.877Z,17.63
2018-08-17T05:47:18.977Z,17.03
2018-08-17T05:49:47.703Z,15.50
2018-08-17T05:52:17.993Z,16.17
2018-08-17T05:54:48.533Z,15.43
2018-08-17T05:57:22.503Z,16.70
2018-08-17T05:59:54.710Z,17.17
2018-08-17T06:02:24.629Z,18.50
2018-08-17T06:04:55.868Z,16.33
2018-08-17T06:07:27.652Z,17.57
2018-08-17T06:10:04.124Z,15.80
2018-08-17T06:12:36.947Z,16.10
2018-08-17T06:15:07.559Z,15.80
2018-08-17T06:17:37.041Z,16.50
2018-08-17T06:20:09.271Z,17.60
2018-08-17T06:22:39.901Z,18.17
2018-08-17T06:25:15.858Z,17.77
2018-08-17T06:27:48.161Z,18.17
2018-08-17T06:30:21.379Z,16.90
2018-08-17T06:32:53.174Z,17.00
2018-08-17T06:35:25.701Z,17.27
2018-08-17T06:37:56.990Z,15.47
2018-08-17T06:40:25.728Z,17.00
2018-08-17T06:42:55.591Z,16.63
2018-08-17T06:45:27.653Z,14.80
2018-08-17T06:47:56.460Z,16.90
2018-08-17T06:50:28.919Z,15.60
2018-08-17T06:52:58.399Z,15.53
2018-08-17T06:55:27.139Z,17.47
2018-08-17T06:57:55.691Z,17.50
2018-08-17T07:00:24.779Z,14.07
2018-08-17T07:02:53.259Z,15.97
2018-08-17T07:05:22.835Z,16.40
2018-08-17T07:07:52.165Z,15.07
2018-08-17T07:10:26.445Z,16.20
2018-08-17T07:12:57.491Z,16.30
2018-08-17T07:15:28.845Z,15.57
2018-08-17T07:18:00.365Z,15.60
2018-08-17T07:20:33.468Z,15.00
2018-08-17T07:23:07.291Z,15.83
2018-08-17T07:25:39.391Z,17.23
2018-08-17T07:28:09.769Z,16.00
2018-08-17T07:30:46.594Z,17.03
2018-08-17T07:33:19.242Z,16.13
2018-08-17T07:35:51.515Z,14.50
2018-08-17T07:38:19.790Z,14.77
2018-08-17T07:40:48.233Z,15.40
2018-08-17T07:43:16.727Z,15.10
2018-08-17T07:45:45.146Z,15.90
2018-08-17T07:48:13.707Z,14.53
2018-08-17T07:50:46.171Z,14.57
2018-08-17T07:53:20.050Z,14.10
2018-08-17T07:55:51.533Z,14.63
2018-08-17T07:58:28.424Z,13.70
2018-08-17T08:01:04.307Z,13.70
2018-08-17T08:03:33.149Z,14.40
2018-08-17T08:06:01.611Z,13.20
2018-08-17T08:08:34.760Z,13.50
2018-08-17T08:11:11.271Z,13.27
2018-08-17T08:13:43.898Z,13.67
2018-08-17T08:16:19.953Z,14.43
2018-08-17T08:18:55.753Z,13.97
2018-08-17T08:21:30.313Z,13.63
2018-08-17T08:24:03.521Z,13.97
2018-08-17T08:26:32.360Z,11.93
2018-08-17T08:29:03.157Z,13.37
2018-08-17T08:31:31.878Z,11.57
2018-08-17T08:34:02.946Z,10.83
2018-08-17T08:36:31.577Z,12.40
2018-08-17T08:39:00.113Z,11.70
2018-08-17T08:41:28.585Z,11.70
2018-08-17T08:44:01.305Z,11.83
2018-08-17T08:46:29.753Z,10.53
2018-08-17T08:48:58.218Z,9.53
2018-08-17T08:51:26.683Z,9.87
2018-08-17T08:53:55.194Z,10.30
2018-08-17T08:56:23.733Z,9.70
2018-08-17T08:58:53.087Z,9.60
2018-08-17T09:01:21.568Z,8.57
2018-08-17T09:03:50.051Z,10.07
2018-08-17T09:06:18.527Z,8.20
2018-08-17T09:08:47.383Z,9.37
2018-08-17T09:11:16.126Z,9.23
2018-08-17T09:13:45.061Z,8.17
2018-08-17T09:16:14.183Z,7.77
2018-08-17T09:18:42.888Z,7.33
2018-08-17T09:21:18.327Z,8.53
2018-08-17T09:23:51.540Z,6.60
2018-08-17T09:26:23.763Z,6.87
2018-08-17T09:28:52.781Z,7.97
2018-08-17T09:31:21.275Z,6.90
2018-08-17T09:33:56.040Z,6.00
2018-08-17T09:36:28.940Z,7.00
2018-08-17T09:39:03.700Z,6.90
2018-08-17T09:41:37.967Z,5.70
2018-08-17T09:44:06.692Z,5.10
2018-08-17T09:46:35.475Z,5.40
2018-08-17T09:49:03.964Z,5.20
2018-08-17T09:51:40.834Z,5.60
2018-08-17T09:54:17.875Z,5.40
2018-08-17T09:56:46.411Z,5.50
2018-08-17T09:59:14.865Z,5.70
2018-08-17T10:01:48.743Z,5.23
2018-08-17T10:04:22.521Z,5.97
2018-08-17T10:06:56.303Z,6.57
2018-08-17T10:09:28.864Z,5.30
2018-08-17T10:11:58.532Z,5.00
2018-08-17T10:14:26.951Z,7.70
2018-08-17T10:16:55.437Z,4.30
2018-08-17T10:19:23.870Z,4.20
2018-08-17T10:21:53.755Z,3.97
2018-08-17T10:24:29.638Z,3.73
2018-08-17T10:27:02.428Z,6.40
2018-08-17T10:29:31.051Z,3.30
2018-08-17T10:31:59.491Z,4.17
2018-08-17T10:34:27.905Z,3.67
2018-08-17T10:36:56.359Z,3.27
2018-08-17T10:39:24.828Z,3.43
2018-08-17T10:41:52.978Z,3.10
2018-08-17T10:44:21.424Z,4.30
2018-08-17T10:46:49.962Z,4.70
2018-08-17T10:49:18.533Z,3.90
2018-08-17T10:51:46.569Z,4.60
2018-08-17T10:54:15.328Z,3.50
2018-08-17T10:56:43.803Z,3.07
2018-08-17T10:59:12.306Z,3.90
2018-08-17T11:01:43.868Z,3.87
2018-08-17T11:04:12.280Z,3.53
2018-08-17T11:06:40.482Z,3.50
2018-08-17T11:09:09.952Z,4.23
2018-08-17T11:11:40.176Z,3.63
2018-08-17T11:14:08.758Z,3.30
2018-08-17T11:16:38.155Z,2.90
2018-08-17T11:19:06.698Z,2.90
2018-08-17T11:21:35.231Z,3.23
2018-08-17T11:24:03.751Z,3.70
2018-08-17T11:26:32.397Z,4.20
2018-08-17T11:29:00.547Z,4.50
2018-08-17T11:31:39.263Z,3.30
2018-08-17T11:34:08.171Z,3.50
2018-08-17T11:36:36.671Z,3.47
2018-08-17T11:39:05.886Z,3.00
2018-08-17T11:41:34.363Z,3.10
2018-08-17T11:44:11.146Z,3.90
2018-08-17T11:46:41.764Z,3.43
2018-08-17T11:49:10.355Z,3.53
2018-08-17T11:51:40.103Z,3.50
2018-08-17T11:54:10.692Z,3.40
2018-08-17T11:56:39.243Z,4.03
2018-08-17T11:59:07.810Z,4.30
2018-08-17T12:01:38.014Z,5.20
2018-08-17T12:04:06.742Z,4.70
2018-08-17T12:06:36.050Z,4.70
2018-08-17T12:09:07.343Z,3.30
2018-08-17T12:11:38.001Z,3.53
2018-08-17T12:14:11.834Z,3.13
2018-08-17T12:16:43.834Z,3.73
2018-08-17T12:19:15.626Z,3.57
2018-08-17T12:21:47.628Z,3.93
2018-08-17T12:24:19.577Z,3.50
2018-08-17T12:26:53.687Z,4.53
2018-08-17T12:29:22.411Z,3.43
2018-08-17T12:31:53.094Z,3.50
2018-08-17T12:34:24.532Z,3.87
2018-08-17T12:36:56.363Z,3.70
2018-08-17T12:39:29.097Z,3.83
2018-08-17T12:41:57.907Z,4.43
2018-08-17T12:44:30.608Z,5.50
2018-08-17T12:47:03.423Z,4.67
2018-08-17T12:49:36.875Z,3.83
2018-08-17T12:52:07.883Z,4.20
2018-08-17T12:54:36.531Z,4.47
2018-08-17T12:57:05.967Z,4.67
2018-08-17T12:59:35.141Z,4.00
2018-08-17T13:02:06.658Z,6.20
2018-08-17T13:04:35.242Z,4.97
2018-08-17T13:07:03.779Z,4.50
2018-08-17T13:09:32.236Z,4.80
2018-08-17T13:12:02.239Z,4.37
2018-08-17T13:14:30.742Z,4.40
2018-08-17T13:17:00.350Z,4.00
2018-08-17T13:19:28.789Z,4.40
2018-08-17T13:21:57.986Z,3.97
2018-08-17T13:24:36.733Z,3.90
2018-08-17T13:27:05.973Z,3.80
2018-08-17T13:29:34.825Z,4.63
2018-08-17T13:32:04.012Z,4.03
2018-08-17T13:34:32.478Z,4.33
2018-08-17T13:37:00.956Z,4.00
2018-08-17T13:39:30.247Z,3.80
2018-08-17T13:41:58.685Z,3.60
2018-08-17T13:44:27.145Z,3.73
2018-08-17T13:46:55.570Z,4.83
2018-08-17T13:49:24.376Z,3.37
2018-08-17T13:51:56.837Z,3.10
2018-08-17T13:54:26.668Z,3.27
2018-08-17T13:56:55.139Z,3.10
2018-08-17T13:59:27.040Z,3.23
2018-08-17T14:02:02.690Z,3.30
2018-08-17T14:04:34.459Z,3.40
2018-08-17T14:07:03.097Z,3.23
2018-08-17T14:09:31.494Z,3.80
2018-08-17T14:12:06.923Z,3.90
2018-08-17T14:14:41.410Z,3.30
2018-08-17T14:17:15.923Z,3.30
2018-08-17T14:19:51.095Z,4.10
2018-08-17T14:22:19.557Z,3.87
2018-08-17T14:24:48.012Z,3.37
2018-08-17T14:27:16.119Z,3.37
2018-08-17T14:29:44.548Z,2.77
2018-08-17T14:32:13.327Z,3.30
2018-08-17T14:34:41.838Z,3.53
2018-08-17T14:37:09.919Z,2.70
2018-08-17T14:39:38.408Z,3.10
2018-08-17T14:42:06.893Z,4.00
2018-08-17T14:44:41.736Z,3.10
2018-08-17T14:47:10.274Z,3.23
2018-08-17T14:49:38.825Z,3.60
2018-08-17T14:52:07.641Z,3.60
2018-08-17T14:54:35.818Z,2.70
2018-08-17T14:57:06.651Z,3.50
2018-08-17T14:59:42.767Z,3.80
2018-08-17T15:02:19.087Z,3.50
2018-08-17T15:04:47.733Z,3.40
2018-08-17T15:07:16.475Z,2.80
2018-08-17T15:09:44.948Z,3.27
2018-08-17T15:12:13.217Z,3.30
2018-08-17T15:14:42.045Z,3.50
2018-08-17T15:17:10.530Z,2.93
2018-08-17T15:19:39.890Z,2.93
2018-08-17T15:22:08.712Z,3.53
2018-08-17T15:24:37.189Z,3.20
2018-08-17T15:27:06.061Z,3.40
2018-08-17T15:29:34.511Z,3.10
2018-08-17T15:32:02.988Z,3.40
2018-08-17T15:34:31.809Z,3.70
2018-08-17T15:37:01.237Z,3.07
2018-08-17T15:39:29.660Z,3.97
2018-08-17T15:41:58.172Z,3.50
2018-08-17T15:44:31.115Z,3.50
2018-08-17T15:47:07.452Z,4.20
2018-08-17T15:49:36.933Z,3.40
2018-08-17T15:52:06.849Z,3.60
2018-08-17T15:54:35.398Z,3.20
2018-08-17T15:57:03.962Z,3.17
2018-08-17T15:59:32.471Z,4.07
2018-08-17T16:02:00.932Z,3.07
2018-08-17T16:04:29.395Z,2.47
2018-08-17T16:06:57.873Z,3.17
2018-08-17T16:09:26.045Z,2.77
2018-08-17T16:11:54.487Z,3.07
2018-08-17T16:14:22.966Z,3.10
2018-08-17T16:16:51.411Z,2.77
2018-08-17T16:19:19.562Z,2.80
2018-08-17T16:21:47.996Z,2.60
2018-08-17T16:24:16.597Z,3.20
2018-08-17T16:26:45.047Z,3.40
2018-08-17T16:29:13.615Z,2.87
2018-08-17T16:31:42.949Z,2.80
2018-08-17T16:34:11.487Z,2.63
2018-08-17T16:36:42.089Z,2.20
2018-08-17T16:39:14.861Z,3.30
2018-08-17T16:41:43.528Z,3.60
2018-08-17T16:44:12.469Z,3.40
2018-08-17T16:46:41.945Z,3.70
2018-08-17T16:49:10.648Z,2.90
2018-08-17T16:51:39.637Z,2.50
2018-08-17T16:54:08.179Z,3.17
2018-08-17T16:56:36.954Z,3.50
2018-08-17T16:59:09.808Z,2.83
2018-08-17T17:01:38.630Z,2.73
2018-08-17T17:04:07.211Z,3.10
2018-08-17T17:06:36.093Z,3.20
2018-08-17T17:09:07.572Z,3.40
2018-08-17T17:11:36.275Z,2.90
2018-08-17T17:14:04.816Z,2.67
2018-08-17T17:16:38.892Z,3.00
2018-08-17T17:19:14.839Z,2.90
2018-08-17T17:21:44.961Z,2.73
2018-08-17T17:24:13.515Z,2.57
2018-08-17T17:26:42.304Z,2.70
2018-08-17T17:29:10.827Z,2.63
2018-08-17T17:31:42.009Z,3.67
2018-08-17T17:34:11.097Z,3.37
2018-08-17T17:36:39.686Z,2.70
2018-08-17T17:39:11.631Z,2.70
2018-08-17T17:41:40.085Z,2.80
2018-08-17T17:44:08.584Z,3.20
2018-08-17T17:46:37.502Z,3.27
2018-08-17T17:49:06.023Z,3.40
2018-08-17T17:51:35.244Z,2.80
2018-08-17T17:54:03.740Z,3.37
2018-08-17T17:56:32.254Z,3.50
2018-08-17T17:59:05.918Z,4.10
2018-08-17T18:01:34.522Z,4.17
2018-08-17T18:04:02.992Z,3.40
2018-08-17T18:06:31.588Z,3.67
2018-08-17T18:09:01.242Z,3.67
2018-08-17T18:11:29.857Z,3.80
2018-08-17T18:13:58.098Z,3.37
2018-08-17T18:16:26.561Z,3.13
2018-08-17T18:18:55.064Z,3.87
2018-08-17T18:21:30.470Z,3.40
2018-08-17T18:24:04.364Z,3.30
2018-08-17T18:26:32.816Z,4.50
2018-08-17T18:29:01.318Z,3.40
2018-08-17T18:31:30.629Z,3.93
2018-08-17T18:33:59.121Z,3.60
2018-08-17T18:36:27.261Z,3.87
2018-08-17T18:38:56.133Z,4.73
2018-08-17T18:41:25.348Z,4.20
2018-08-17T18:43:54.217Z,3.63
2018-08-17T18:46:22.725Z,4.77
2018-08-17T18:48:51.236Z,4.03
2018-08-17T18:51:19.869Z,4.10
2018-08-17T18:53:49.342Z,4.70
2018-08-17T18:56:17.619Z,4.87
2018-08-17T18:58:49.407Z,4.60
2018-08-17T19:01:18.904Z,4.60
2018-08-17T19:03:47.375Z,5.23
2018-08-17T19:06:18.930Z,4.60
2018-08-17T19:08:47.237Z,4.60
2018-08-17T19:11:15.411Z,4.80
2018-08-17T19:13:43.902Z,5.27
2018-08-17T19:16:12.543Z,5.03
2018-08-17T19:18:40.790Z,4.93
2018-08-17T19:21:11.849Z,4.97
2018-08-17T19:23:40.445Z,5.77
2018-08-17T19:26:09.783Z,5.70
2018-08-17T19:28:39.195Z,5.43
2018-08-17T19:31:08.161Z,5.67
2018-08-17T19:33:37.076Z,5.33
2018-08-17T19:36:05.670Z,5.97
2018-08-17T19:38:38.847Z,5.70
2018-08-17T19:41:07.385Z,5.63
2018-08-17T19:43:36.017Z,6.10
2018-08-17T19:46:04.325Z,5.70
2018-08-17T19:48:32.989Z,5.97
2018-08-17T19:51:01.644Z,5.27
2018-08-17T19:53:30.779Z,5.23
2018-08-17T19:55:59.458Z,5.57
2018-08-17T19:58:28.698Z,5.70
2018-08-17T20:00:57.192Z,5.53
2018-08-17T20:03:27.692Z,4.83
2018-08-17T20:05:55.879Z,6.33
2018-08-17T20:08:24.664Z,4.70
2018-08-17T20:10:53.274Z,5.50
2018-08-17T20:13:21.624Z,7.00
2018-08-17T20:15:50.154Z,7.53
2018-08-17T20:18:18.733Z,6.50
2018-08-17T20:20:47.655Z,6.90
2018-08-17T20:23:16.168Z,6.53
2018-08-17T20:25:44.965Z,6.20
2018-08-17T20:28:13.727Z,6.90
2018-08-17T20:30:42.284Z,6.50
2018-08-17T20:33:16.091Z,6.63
2018-08-17T20:35:44.760Z,6.63
2018-08-17T20:38:14.164Z,6.00
2018-08-17T20:40:42.816Z,6.20
2018-08-17T20:43:11.047Z,7.17
2018-08-17T20:45:39.608Z,6.00
2018-08-17T20:48:08.535Z,6.03
2018-08-17T20:50:36.767Z,6.67
2018-08-17T20:53:05.275Z,6.40
2018-08-17T20:55:33.530Z,8.00
2018-08-17T20:58:01.740Z,6.33
2018-08-17T21:00:30.415Z,7.20
2018-08-17T21:02:59.407Z,7.17
2018-08-17T21:05:27.963Z,6.50
2018-08-17T21:07:56.421Z,6.00
2018-08-17T21:10:24.951Z,5.70
2018-08-17T21:12:54.473Z,7.23
2018-08-17T21:15:23.120Z,6.17
2018-08-17T21:17:51.425Z,6.53
2018-08-17T21:20:19.647Z,6.00
2018-08-17T21:22:48.273Z,7.30
2018-08-17T21:25:17.699Z,7.20
2018-08-17T21:27:46.258Z,8.43
2018-08-17T21:30:15.669Z,7.03
2018-08-17T21:32:43.962Z,7.47
2018-08-17T21:35:12.538Z,6.90
2018-08-17T21:37:41.356Z,8.07
2018-08-17T21:40:16.600Z,8.20
2018-08-17T21:42:45.759Z,6.97
2018-08-17T21:45:14.521Z,7.00
2018-08-17T21:47:43.052Z,6.90
2018-08-17T21:50:14.638Z,6.77
2018-08-17T21:52:44.668Z,6.20
2018-08-17T21:55:13.444Z,6.47
2018-08-17T21:57:42.011Z,6.80
2018-08-17T22:00:18.962Z,6.60
2018-08-17T22:02:47.094Z,6.83
2018-08-17T22:05:27.680Z,6.37
2018-08-17T22:07:56.201Z,7.67
2018-08-17T22:10:24.670Z,8.30
2018-08-17T22:12:53.138Z,7.30
2018-08-17T22:15:21.700Z,7.33
2018-08-17T22:17:50.287Z,6.23
2018-08-17T22:20:18.800Z,7.13
2018-08-17T22:22:47.419Z,8.13
2018-08-17T22:25:17.367Z,8.90
2018-08-17T22:27:46.390Z,7.00
2018-08-17T22:30:17.394Z,7.57
2018-08-17T22:32:45.803Z,6.70
2018-08-17T22:35:14.445Z,8.53
2018-08-17T22:37:43.712Z,10.10
2018-08-17T22:40:12.373Z,9.43
2018-08-17T22:42:40.934Z,7.40
2018-08-17T22:45:09.374Z,6.63
2018-08-17T22:47:37.791Z,6.60
2018-08-17T22:50:06.831Z,6.70
2018-08-17T22:52:35.644Z,7.30
2018-08-17T22:55:07.899Z,7.10
2018-08-17T22:57:36.058Z,6.40
2018-08-17T23:00:19.958Z,7.23
2018-08-17T23:02:49.708Z,7.43
2018-08-17T23:05:21.424Z,6.20
2018-08-17T23:07:49.892Z,6.60
2018-08-17T23:10:22.444Z,7.57
2018-08-17T23:12:52.009Z,6.27
2018-08-17T23:15:20.627Z,7.23
2018-08-17T23:17:52.992Z,6.90
2018-08-17T23:20:26.807Z,7.57
2018-08-17T23:22:56.455Z,7.63
2018-08-17T23:25:24.959Z,8.83
2018-08-17T23:27:53.582Z,7.90
2018-08-17T23:30:22.454Z,8.30
2018-08-17T23:32:51.084Z,8.93
2018-08-17T23:35:19.549Z,8.73
2018-08-17T23:37:48.409Z,9.03
2018-08-17T23:40:16.983Z,7.10
2018-08-17T23:42:45.518Z,8.80
2018-08-17T23:45:15.513Z,7.33
2018-08-17T23:47:50.276Z,8.13
2018-08-17T23:50:18.752Z,9.13
2018-08-17T23:52:46.967Z,8.70
2018-08-17T23:55:17.098Z,7.33
2018-08-17T23:57:45.267Z,8.60
